Time;durP1;ratioP1;P1;durP2;ratioP2;P2;SDS_P1;SDS_P2;PMS_P1;PMS_P2;Temp;Humidity;BMP_temperature;BMP_pressure;BME280_temperature;BME280_humidity;BME280_pressure;Samples;Min_cycle;Max_cycle;Signal;HPM_P1;HPM_P2
2024/01/24 00:01:18;;;;;;;4.93;1.87;;;;;;;;;;5090773;28;20206;-60
2024/01/24 00:03:45;;;;;;;7.87;2.03;;;;;;;;;;5089986;28;20301;-59
2024/01/24 00:06:12;;;;;;;4.20;1.40;;;;;;;;;;5073942;28;20214;-59
2024/01/24 00:08:39;;;;;;;7.90;1.67;;;;;;;;;;5090693;28;20225;-59
2024/01/24 00:11:08;;;;;;;3.97;1.80;;;;;;;;;;5071197;28;20304;-59
2024/01/24 00:13:35;;;;;;;9.97;2.13;;;;;;;;;;5079223;28;20233;-59
2024/01/24 00:16:04;;;;;;;2.30;0.97;;;;;;;;;;5091177;28;20742;-59
2024/01/24 00:18:31;;;;;;;5.70;1.13;;;;;;;;;;5091338;28;20216;-60
2024/01/24 00:20:58;;;;;;;4.47;1.50;;;;;;;;;;5087640;28;20213;-60
2024/01/24 00:23:25;;;;;;;6.60;1.47;;;;;;;;;;5091254;28;20207;-60
2024/01/24 00:25:52;;;;;;;5.87;1.07;;;;;;;;;;5090225;28;20238;-60
2024/01/24 00:28:26;;;;;;;2.40;0.70;;;;;;;;;;5090961;28;20225;-59
2024/01/24 00:30:53;;;;;;;2.90;1.07;;;;;;;;;;5090741;28;20293;-60
2024/01/24 00:33:21;;;;;;;3.63;1.00;;;;;;;;;;5091144;28;20226;-60
2024/01/24 00:35:48;;;;;;;3.90;0.80;;;;;;;;;;5090558;28;20210;-60
2024/01/24 00:38:15;;;;;;;3.73;0.90;;;;;;;;;;5089639;28;20206;-59
2024/01/24 00:40:42;;;;;;;0.60;0.60;;;;;;;;;;5090104;28;20226;-62
2024/01/24 00:43:09;;;;;;;2.43;0.70;;;;;;;;;;5090893;28;20202;-60
2024/01/24 00:45:38;;;;;;;5.03;1.17;;;;;;;;;;5089801;28;20206;-60
2024/01/24 00:48:06;;;;;;;4.13;0.93;;;;;;;;;;5090292;28;20622;-59
2024/01/24 00:50:34;;;;;;;4.03;0.87;;;;;;;;;;5076835;28;20704;-60
2024/01/24 00:53:01;;;;;;;2.00;1.20;;;;;;;;;;5088795;28;20240;-59
2024/01/24 00:55:30;;;;;;;1.83;0.70;;;;;;;;;;5085103;28;20672;-59
2024/01/24 00:57:58;;;;;;;5.90;0.80;;;;;;;;;;5089529;28;20222;-59
2024/01/24 01:00:25;;;;;;;1.20;0.67;;;;;;;;;;5089948;28;20276;-59
2024/01/24 01:02:53;;;;;;;3.00;0.70;;;;;;;;;;5080981;28;20207;-60
2024/01/24 01:05:20;;;;;;;2.07;0.67;;;;;;;;;;5085521;28;20297;-59
2024/01/24 01:07:47;;;;;;;2.20;0.60;;;;;;;;;;5088836;28;20209;-59
2024/01/24 01:10:14;;;;;;;3.67;0.80;;;;;;;;;;5073293;28;20227;-60
2024/01/24 01:12:41;;;;;;;1.90;0.80;;;;;;;;;;5078647;28;20707;-60
2024/01/24 01:15:09;;;;;;;0.70;0.67;;;;;;;;;;5090430;28;20209;-60
2024/01/24 01:17:36;;;;;;;2.63;1.57;;;;;;;;;;5089579;28;20205;-59
2024/01/24 01:20:05;;;;;;;2.27;1.37;;;;;;;;;;5090130;28;20275;-60
2024/01/24 01:22:32;;;;;;;3.00;1.60;;;;;;;;;;5090485;28;20259;-59
2024/01/24 01:24:59;;;;;;;1.73;1.33;;;;;;;;;;5080025;28;20836;-59
2024/01/24 01:27:26;;;;;;;1.57;1.40;;;;;;;;;;5087803;28;20202;-60
2024/01/24 01:29:53;;;;;;;4.20;2.00;;;;;;;;;;5076971;28;20226;-60
2024/01/24 01:32:20;;;;;;;2.17;1.40;;;;;;;;;;5069881;28;20214;-59
2024/01/24 01:34:47;;;;;;;1.90;1.80;;;;;;;;;;5083035;28;20932;-60
2024/01/24 01:37:15;;;;;;;2.53;1.40;;;;;;;;;;5079835;28;20202;-59
2024/01/24 01:39:42;;;;;;;1.33;0.87;;;;;;;;;;5089611;28;20209;-59
2024/01/24 01:42:09;;;;;;;1.53;0.50;;;;;;;;;;5089471;28;20229;-59
2024/01/24 01:44:40;;;;;;;1.77;0.80;;;;;;;;;;5088907;28;20194;-59
2024/01/24 01:47:07;;;;;;;1.33;0.63;;;;;;;;;;5089258;28;20199;-59
2024/01/24 01:49:34;;;;;;;0.50;0.50;;;;;;;;;;5089192;28;20695;-59
2024/01/24 01:52:01;;;;;;;2.57;0.57;;;;;;;;;;5090044;28;20229;-60
2024/01/24 01:54:29;;;;;;;1.43;0.60;;;;;;;;;;5089255;28;20218;-59
2024/01/24 01:56:56;;;;;;;2.13;0.50;;;;;;;;;;5089350;28;20209;-59
2024/01/24 01:59:24;;;;;;;1.30;0.60;;;;;;;;;;5087711;28;20225;-60
2024/01/24 02:01:52;;;;;;;1.90;0.50;;;;;;;;;;5089058;28;20202;-60
2024/01/24 02:04:19;;;;;;;2.10;0.60;;;;;;;;;;5088886;28;20202;-59
2024/01/24 02:06:46;;;;;;;1.13;0.43;;;;;;;;;;5089357;28;20233;-59
2024/01/24 02:09:13;;;;;;;0.93;0.40;;;;;;;;;;5089168;28;20708;-59
2024/01/24 02:11:42;;;;;;;1.13;0.50;;;;;;;;;;5071738;28;20207;-59
2024/01/24 02:14:11;;;;;;;2.33;0.60;;;;;;;;;;5079787;28;20233;-60
2024/01/24 02:16:38;;;;;;;0.70;0.70;;;;;;;;;;5089213;28;20434;-60
2024/01/24 02:19:05;;;;;;;0.50;0.50;;;;;;;;;;5087672;28;20202;-60
2024/01/24 02:21:32;;;;;;;1.23;0.53;;;;;;;;;;5088768;28;20611;-59
2024/01/24 02:23:59;;;;;;;0.60;0.60;;;;;;;;;;5079458;28;20665;-59
2024/01/24 02:26:27;;;;;;;1.53;0.70;;;;;;;;;;5073124;28;20221;-59
2024/01/24 02:28:54;;;;;;;0.70;0.70;;;;;;;;;;5087932;28;20198;-59
2024/01/24 02:31:21;;;;;;;2.00;0.70;;;;;;;;;;5087906;28;20568;-60
2024/01/24 02:33:48;;;;;;;0.90;0.63;;;;;;;;;;5086181;28;21473;-59
2024/01/24 02:36:15;;;;;;;1.23;0.50;;;;;;;;;;5088255;28;20214;-59
2024/01/24 02:38:42;;;;;;;0.40;0.40;;;;;;;;;;5088280;28;20552;-59
2024/01/24 02:41:09;;;;;;;0.63;0.50;;;;;;;;;;5088486;28;20202;-59
2024/01/24 02:43:38;;;;;;;2.73;0.83;;;;;;;;;;5076012;28;20208;-59
2024/01/24 02:46:05;;;;;;;2.07;0.53;;;;;;;;;;5087852;28;20203;-59
2024/01/24 02:48:32;;;;;;;1.33;0.50;;;;;;;;;;5087252;28;20198;-59
2024/01/24 02:50:59;;;;;;;0.57;0.50;;;;;;;;;;5087229;28;20221;-60
2024/01/24 02:53:26;;;;;;;1.07;0.50;;;;;;;;;;5087466;28;20214;-59
2024/01/24 02:55:53;;;;;;;0.93;0.60;;;;;;;;;;5087411;28;20198;-59
2024/01/24 02:58:20;;;;;;;0.33;0.33;;;;;;;;;;5083995;28;20701;-59
2024/01/24 03:00:48;;;;;;;0.53;0.27;;;;;;;;;;5085042;28;20206;-59
2024/01/24 03:03:15;;;;;;;0.70;0.30;;;;;;;;;;5087059;28;20199;-59
2024/01/24 03:05:43;;;;;;;0.30;0.30;;;;;;;;;;5087734;28;20225;-60
2024/01/24 03:08:10;;;;;;;0.40;0.40;;;;;;;;;;5087372;28;20297;-59
2024/01/24 03:10:37;;;;;;;0.50;0.40;;;;;;;;;;5087503;28;20222;-59
2024/01/24 03:13:04;;;;;;;0.97;0.50;;;;;;;;;;5086374;28;20379;-59
2024/01/24 03:15:31;;;;;;;0.30;0.30;;;;;;;;;;5087952;28;20202;-59
2024/01/24 03:17:59;;;;;;;0.50;0.50;;;;;;;;;;5087614;28;20610;-59
2024/01/24 03:20:26;;;;;;;0.67;0.30;;;;;;;;;;5087103;28;20247;-59
2024/01/24 03:22:53;;;;;;;0.67;0.30;;;;;;;;;;5083440;28;20267;-59
2024/01/24 03:25:21;;;;;;;1.73;0.57;;;;;;;;;;5086120;28;20202;-60
2024/01/24 03:27:48;;;;;;;1.23;0.37;;;;;;;;;;5088112;28;20628;-59
2024/01/24 03:30:15;;;;;;;1.40;0.40;;;;;;;;;;5087242;28;20211;-60
2024/01/24 03:32:43;;;;;;;1.17;0.33;;;;;;;;;;5087642;28;20198;-59
2024/01/24 03:35:11;;;;;;;0.40;0.40;;;;;;;;;;5086886;28;20236;-59
2024/01/24 03:37:38;;;;;;;0.30;0.30;;;;;;;;;;5087074;28;20210;-59
2024/01/24 03:40:06;;;;;;;1.37;0.30;;;;;;;;;;5087011;28;20206;-59
2024/01/24 03:42:32;;;;;;;0.57;0.37;;;;;;;;;;5087334;28;20832;-59
2024/01/24 03:45:00;;;;;;;1.47;0.40;;;;;;;;;;5087055;28;20538;-59
2024/01/24 03:47:27;;;;;;;0.60;0.40;;;;;;;;;;5085574;28;20551;-59
2024/01/24 03:49:54;;;;;;;0.73;0.30;;;;;;;;;;5087521;28;20501;-59
2024/01/24 03:52:22;;;;;;;0.40;0.23;;;;;;;;;;5086841;28;20235;-59
2024/01/24 03:54:49;;;;;;;0.30;0.30;;;;;;;;;;5086812;28;20221;-59
2024/01/24 03:57:17;;;;;;;0.57;0.30;;;;;;;;;;5086814;28;20194;-59
2024/01/24 03:59:44;;;;;;;0.57;0.20;;;;;;;;;;5086875;28;20839;-59
2024/01/24 04:02:11;;;;;;;1.53;0.20;;;;;;;;;;5087056;28;20208;-59
2024/01/24 04:04:38;;;;;;;1.50;0.20;;;;;;;;;;5086319;28;20202;-59
2024/01/24 04:07:05;;;;;;;0.30;0.30;;;;;;;;;;5087386;28;20623;-60
2024/01/24 04:09:33;;;;;;;0.60;0.40;;;;;;;;;;5087611;28;20234;-59
2024/01/24 04:12:00;;;;;;;0.30;0.30;;;;;;;;;;5086833;28;20199;-61
2024/01/24 04:14:27;;;;;;;0.10;0.10;;;;;;;;;;5085977;28;20221;-60
2024/01/24 04:16:54;;;;;;;0.10;0.10;;;;;;;;;;5087218;28;20276;-59
2024/01/24 04:19:21;;;;;;;0.20;0.20;;;;;;;;;;5079279;28;20680;-59
2024/01/24 04:21:48;;;;;;;0.10;0.10;;;;;;;;;;5071708;28;20198;-59
2024/01/24 04:24:15;;;;;;;1.17;0.10;;;;;;;;;;5086979;28;20202;-59
2024/01/24 04:26:44;;;;;;;0.30;0.30;;;;;;;;;;5087499;28;20214;-60
2024/01/24 04:29:11;;;;;;;0.53;0.30;;;;;;;;;;5087549;28;20209;-60
2024/01/24 04:31:38;;;;;;;0.63;0.33;;;;;;;;;;5086399;28;20213;-59
2024/01/24 04:34:05;;;;;;;0.20;0.20;;;;;;;;;;5085594;28;20592;-59
2024/01/24 04:36:32;;;;;;;0.50;0.30;;;;;;;;;;5086880;28;20697;-60
2024/01/24 04:38:59;;;;;;;0.67;0.30;;;;;;;;;;5086701;28;20205;-59
2024/01/24 04:41:26;;;;;;;0.57;0.23;;;;;;;;;;5086976;28;20229;-59
2024/01/24 04:43:55;;;;;;;1.70;0.30;;;;;;;;;;5086891;28;20207;-59
2024/01/24 04:46:22;;;;;;;0.30;0.30;;;;;;;;;;5071874;28;20207;-59
2024/01/24 04:48:49;;;;;;;0.37;0.27;;;;;;;;;;5076589;28;20653;-60
2024/01/24 04:51:17;;;;;;;1.10;0.60;;;;;;;;;;5084948;28;20211;-59
2024/01/24 04:53:44;;;;;;;0.30;0.30;;;;;;;;;;5079448;28;20218;-60
2024/01/24 04:56:11;;;;;;;0.20;0.20;;;;;;;;;;5090671;28;20199;-60
2024/01/24 04:58:38;;;;;;;0.60;0.30;;;;;;;;;;5089448;28;20241;-59
2024/01/24 05:01:06;;;;;;;0.60;0.20;;;;;;;;;;5089456;28;20202;-59
2024/01/24 05:03:33;;;;;;;1.17;0.30;;;;;;;;;;5089383;28;20259;-59
2024/01/24 05:06:01;;;;;;;0.20;0.20;;;;;;;;;;5090108;28;20288;-59
2024/01/24 05:08:27;;;;;;;1.27;0.27;;;;;;;;;;5089421;28;20227;-59
2024/01/24 05:10:55;;;;;;;0.30;0.30;;;;;;;;;;5089943;28;20233;-60
2024/01/24 05:13:22;;;;;;;0.73;0.30;;;;;;;;;;5088814;28;20209;-59
2024/01/24 05:15:49;;;;;;;0.20;0.20;;;;;;;;;;5089895;28;20203;-60
2024/01/24 05:18:18;;;;;;;0.30;0.30;;;;;;;;;;5089902;28;20198;-60
2024/01/24 05:20:45;;;;;;;1.07;0.20;;;;;;;;;;5089483;28;20213;-59
2024/01/24 05:23:12;;;;;;;0.20;0.20;;;;;;;;;;5086399;28;20691;-60
2024/01/24 05:25:39;;;;;;;1.27;0.30;;;;;;;;;;5070090;28;20207;-60
2024/01/24 05:28:08;;;;;;;0.20;0.20;;;;;;;;;;5086150;28;20558;-60
2024/01/24 05:30:35;;;;;;;0.33;0.23;;;;;;;;;;5089597;28;20302;-60
2024/01/24 05:33:02;;;;;;;0.20;0.20;;;;;;;;;;5089548;28;20232;-60
2024/01/24 05:35:30;;;;;;;1.17;0.53;;;;;;;;;;5089905;28;20230;-60
2024/01/24 05:37:57;;;;;;;0.40;0.30;;;;;;;;;;5089892;28;20217;-59
2024/01/24 05:40:24;;;;;;;0.30;0.30;;;;;;;;;;5088849;28;20272;-60
2024/01/24 05:42:51;;;;;;;1.13;0.20;;;;;;;;;;5088010;28;20221;-59
2024/01/24 05:45:18;;;;;;;0.20;0.20;;;;;;;;;;5089067;28;20740;-60
2024/01/24 05:47:45;;;;;;;0.57;0.30;;;;;;;;;;5089283;28;20251;-59
2024/01/24 05:50:13;;;;;;;0.97;0.20;;;;;;;;;;5081706;28;20209;-59
2024/01/24 05:52:42;;;;;;;0.20;0.20;;;;;;;;;;5088719;28;20209;-60
2024/01/24 05:55:10;;;;;;;1.90;0.27;;;;;;;;;;5080036;28;20227;-59
2024/01/24 05:57:40;;;;;;;0.30;0.30;;;;;;;;;;5087337;28;20236;-59
2024/01/24 06:00:08;;;;;;;0.20;0.20;;;;;;;;;;5086864;28;20229;-59
2024/01/24 06:02:35;;;;;;;0.27;0.27;;;;;;;;;;5088495;28;20202;-59
2024/01/24 06:05:03;;;;;;;0.30;0.30;;;;;;;;;;5087989;28;20225;-59
2024/01/24 06:07:30;;;;;;;0.10;0.10;;;;;;;;;;5079732;28;20199;-59
2024/01/24 06:09:58;;;;;;;0.80;0.30;;;;;;;;;;5088567;28;20226;-59
2024/01/24 06:12:25;;;;;;;0.20;0.20;;;;;;;;;;5089182;28;20210;-59
2024/01/24 06:14:54;;;;;;;0.20;0.20;;;;;;;;;;5089326;28;20233;-60
2024/01/24 06:17:21;;;;;;;0.20;0.20;;;;;;;;;;5089132;28;20225;-60
2024/01/24 06:19:50;;;;;;;0.20;0.20;;;;;;;;;;5088985;28;20202;-59
2024/01/24 06:22:17;;;;;;;0.27;0.20;;;;;;;;;;5087607;28;20297;-59
2024/01/24 06:24:44;;;;;;;0.10;0.10;;;;;;;;;;5089176;28;20210;-59
2024/01/24 06:27:12;;;;;;;0.30;0.30;;;;;;;;;;5089385;28;20233;-59
2024/01/24 06:29:39;;;;;;;0.13;0.13;;;;;;;;;;5085469;28;20676;-58
2024/01/24 06:32:07;;;;;;;0.60;0.17;;;;;;;;;;5085626;28;20194;-59
2024/01/24 06:34:34;;;;;;;0.20;0.20;;;;;;;;;;5088474;28;20241;-59
2024/01/24 06:37:01;;;;;;;0.40;0.40;;;;;;;;;;5088123;28;20203;-71
2024/01/24 06:39:28;;;;;;;0.30;0.30;;;;;;;;;;5087966;28;20198;-59
2024/01/24 06:42:41;;;;;;;0.20;0.20;;;;;;;;;;5088216;28;20209;-59
2024/01/24 06:45:10;;;;;;;0.10;0.10;;;;;;;;;;5064842;28;20199;-59
2024/01/24 06:47:37;;;;;;;0.20;0.20;;;;;;;;;;5067913;28;20215;-59
2024/01/24 06:50:05;;;;;;;1.67;0.20;;;;;;;;;;5067816;28;20394;-60
2024/01/24 06:52:32;;;;;;;0.70;0.10;;;;;;;;;;5080481;28;20241;-59
2024/01/24 06:54:59;;;;;;;0.20;0.20;;;;;;;;;;5087564;28;20237;-59
2024/01/24 06:57:26;;;;;;;0.20;0.20;;;;;;;;;;5075080;28;20209;-60
2024/01/24 06:59:53;;;;;;;0.30;0.30;;;;;;;;;;5068703;28;20230;-60
2024/01/24 07:02:22;;;;;;;0.10;0.10;;;;;;;;;;5087974;28;20427;-60
2024/01/24 07:04:50;;;;;;;0.13;0.13;;;;;;;;;;5085639;28;20712;-60
2024/01/24 07:07:17;;;;;;;0.20;0.20;;;;;;;;;;5087477;28;20926;-60
2024/01/24 07:09:44;;;;;;;0.10;0.10;;;;;;;;;;5087319;28;20245;-59
2024/01/24 07:12:13;;;;;;;0.30;0.30;;;;;;;;;;5085709;28;20202;-60
2024/01/24 07:14:40;;;;;;;0.20;0.20;;;;;;;;;;5087893;28;20325;-59
2024/01/24 07:17:07;;;;;;;0.20;0.20;;;;;;;;;;5082555;28;20647;-60
2024/01/24 07:19:35;;;;;;;0.10;0.10;;;;;;;;;;5078384;28;20205;-60
2024/01/24 07:22:02;;;;;;;0.10;0.10;;;;;;;;;;5087601;28;20221;-60
2024/01/24 07:24:30;;;;;;;1.07;0.20;;;;;;;;;;5087119;28;20673;-60
2024/01/24 07:26:57;;;;;;;0.10;0.10;;;;;;;;;;5086739;28;20305;-60
2024/01/24 07:29:24;;;;;;;0.10;0.10;;;;;;;;;;5087528;28;20209;-59
2024/01/24 07:31:51;;;;;;;1.60;0.10;;;;;;;;;;5070780;28;20554;-60
2024/01/24 07:34:18;;;;;;;0.10;0.10;;;;;;;;;;5067897;28;20234;-60
2024/01/24 07:36:47;;;;;;;0.00;0.00;;;;;;;;;;5084428;28;20210;-60
2024/01/24 07:39:14;;;;;;;0.23;0.10;;;;;;;;;;5087775;28;20212;-61
2024/01/24 07:41:41;;;;;;;0.10;0.10;;;;;;;;;;5087581;28;20559;-60
2024/01/24 07:44:08;;;;;;;0.10;0.10;;;;;;;;;;5087812;28;20205;-61
2024/01/24 07:46:36;;;;;;;0.47;0.10;;;;;;;;;;5087996;28;20738;-59
2024/01/24 07:49:03;;;;;;;0.00;0.00;;;;;;;;;;5087502;28;20657;-59
2024/01/24 07:51:30;;;;;;;0.63;0.10;;;;;;;;;;5087933;28;20213;-59
2024/01/24 07:53:59;;;;;;;0.13;0.13;;;;;;;;;;5083517;28;20598;-60
2024/01/24 07:56:26;;;;;;;1.17;0.10;;;;;;;;;;5068781;28;20231;-60
2024/01/24 07:58:53;;;;;;;0.20;0.20;;;;;;;;;;5087339;28;20222;-61
2024/01/24 08:01:20;;;;;;;0.10;0.10;;;;;;;;;;5087689;28;20995;-60
2024/01/24 08:03:47;;;;;;;0.83;0.10;;;;;;;;;;5087472;28;20209;-60
2024/01/24 08:06:14;;;;;;;0.10;0.10;;;;;;;;;;5088017;28;20194;-60
2024/01/24 08:08:41;;;;;;;0.10;0.10;;;;;;;;;;5085800;28;20206;-60
2024/01/24 08:11:09;;;;;;;0.10;0.10;;;;;;;;;;5087338;28;20743;-60
2024/01/24 08:13:37;;;;;;;0.40;0.10;;;;;;;;;;5087605;28;20211;-59
2024/01/24 08:16:04;;;;;;;0.23;0.10;;;;;;;;;;5087768;28;20230;-60
2024/01/24 08:18:32;;;;;;;0.10;0.10;;;;;;;;;;5091140;28;20306;-60
2024/01/24 08:20:59;;;;;;;0.17;0.10;;;;;;;;;;5091510;28;20664;-59
2024/01/24 08:23:26;;;;;;;0.10;0.10;;;;;;;;;;5091663;28;20422;-61
2024/01/24 08:25:53;;;;;;;0.10;0.10;;;;;;;;;;5091551;28;20206;-61
2024/01/24 08:28:21;;;;;;;0.20;0.20;;;;;;;;;;5091111;28;20206;-61
2024/01/24 08:30:48;;;;;;;0.13;0.13;;;;;;;;;;5091307;28;20690;-61
2024/01/24 08:33:15;;;;;;;1.40;0.80;;;;;;;;;;5090666;28;20209;-60
2024/01/24 08:35:42;;;;;;;0.33;0.20;;;;;;;;;;5091574;28;20222;-60
2024/01/24 08:38:09;;;;;;;0.50;0.20;;;;;;;;;;5090162;28;20668;-61
2024/01/24 08:40:38;;;;;;;1.07;0.10;;;;;;;;;;5090842;28;20787;-60
2024/01/24 08:43:06;;;;;;;2.20;0.20;;;;;;;;;;5090454;28;20628;-61
2024/01/24 08:45:34;;;;;;;0.57;0.20;;;;;;;;;;5091082;28;20708;-60
2024/01/24 08:48:01;;;;;;;2.27;0.20;;;;;;;;;;5091050;28;20202;-60
2024/01/24 08:50:28;;;;;;;0.68;0.30;;;;;;;;;;5090442;28;20211;-60
2024/01/24 08:52:55;;;;;;;3.03;0.73;;;;;;;;;;5090885;28;20209;-60
2024/01/24 08:55:22;;;;;;;2.73;0.33;;;;;;;;;;5090240;28;20257;-60
2024/01/24 08:57:49;;;;;;;1.30;0.40;;;;;;;;;;5090641;28;20233;-61
2024/01/24 09:00:17;;;;;;;0.15;0.15;;;;;;;;;;5083789;28;20238;-61
2024/01/24 09:02:46;;;;;;;0.57;0.28;;;;;;;;;;5087079;28;20230;-60
2024/01/24 09:05:15;;;;;;;0.30;0.30;;;;;;;;;;5087923;28;20200;-60
2024/01/24 09:07:42;;;;;;;1.00;0.20;;;;;;;;;;5070629;28;20242;-62
2024/01/24 09:10:10;;;;;;;0.30;0.20;;;;;;;;;;5071239;28;20246;-61
2024/01/24 09:12:37;;;;;;;0.30;0.30;;;;;;;;;;5090038;28;20233;-60
2024/01/24 09:15:05;;;;;;;0.60;0.30;;;;;;;;;;5090791;28;20222;-60
2024/01/24 09:17:33;;;;;;;1.05;0.20;;;;;;;;;;5090832;28;20214;-60
2024/01/24 09:20:02;;;;;;;0.67;0.40;;;;;;;;;;5089983;28;20707;-63
2024/01/24 09:22:29;;;;;;;1.83;0.37;;;;;;;;;;5090201;28;20584;-63
2024/01/24 09:24:56;;;;;;;0.85;0.40;;;;;;;;;;5090558;28;20210;-65
2024/01/24 09:27:23;;;;;;;2.92;0.70;;;;;;;;;;5090736;28;20214;-64
2024/01/24 09:29:50;;;;;;;2.40;0.52;;;;;;;;;;5084526;28;20199;-64
2024/01/24 09:32:17;;;;;;;0.43;0.38;;;;;;;;;;5079231;28;20211;-64
2024/01/24 09:34:44;;;;;;;4.75;0.63;;;;;;;;;;5089779;28;20210;-64
2024/01/24 09:37:12;;;;;;;3.58;0.60;;;;;;;;;;5090150;28;20209;-61
2024/01/24 09:39:39;;;;;;;3.25;0.60;;;;;;;;;;5088163;28;20298;-61
2024/01/24 09:42:10;;;;;;;3.20;0.55;;;;;;;;;;5089586;28;20211;-63
2024/01/24 09:44:37;;;;;;;5.88;0.77;;;;;;;;;;5088253;28;20246;-64
2024/01/24 09:47:04;;;;;;;1.33;0.50;;;;;;;;;;5089807;28;20211;-62
2024/01/24 09:49:32;;;;;;;2.10;0.70;;;;;;;;;;5085852;28;20210;-62
2024/01/24 09:52:00;;;;;;;5.45;1.05;;;;;;;;;;5089614;28;20221;-63
2024/01/24 09:54:29;;;;;;;0.70;0.43;;;;;;;;;;5087192;28;20214;-62
2024/01/24 09:56:56;;;;;;;2.05;0.70;;;;;;;;;;5077815;28;20727;-62
2024/01/24 09:59:23;;;;;;;4.22;0.40;;;;;;;;;;5087583;28;20233;-62
2024/01/24 10:01:50;;;;;;;2.25;0.95;;;;;;;;;;5080986;28;20206;-62
2024/01/24 10:04:19;;;;;;;2.40;1.20;;;;;;;;;;5089964;28;20202;-62
2024/01/24 10:06:46;;;;;;;8.13;1.13;;;;;;;;;;5076124;28;20207;-62
2024/01/24 10:09:14;;;;;;;2.13;0.60;;;;;;;;;;5069028;28;20254;-62
2024/01/24 10:11:42;;;;;;;4.68;1.00;;;;;;;;;;5069349;28;20211;-62
2024/01/24 10:14:09;;;;;;;4.90;1.38;;;;;;;;;;5069162;28;20207;-62
2024/01/24 10:16:36;;;;;;;5.57;1.25;;;;;;;;;;5074797;28;20230;-62
2024/01/24 10:19:03;;;;;;;5.47;1.40;;;;;;;;;;5070024;28;20661;-62
2024/01/24 10:21:31;;;;;;;4.13;1.13;;;;;;;;;;5068987;28;20202;-62
2024/01/24 10:23:59;;;;;;;9.10;1.75;;;;;;;;;;5068874;28;20222;-61
2024/01/24 10:26:26;;;;;;;6.30;1.27;;;;;;;;;;5069599;28;20203;-60
2024/01/24 10:28:55;;;;;;;7.70;1.10;;;;;;;;;;5087535;28;20209;-60
2024/01/24 10:31:22;;;;;;;8.05;1.50;;;;;;;;;;5087726;28;20222;-60
2024/01/24 10:33:50;;;;;;;4.15;1.40;;;;;;;;;;5069336;28;20203;-59
2024/01/24 10:36:17;;;;;;;9.38;1.58;;;;;;;;;;5070011;28;20253;-60
2024/01/24 10:38:48;;;;;;;7.40;1.67;;;;;;;;;;5073183;28;20214;-60
2024/01/24 10:41:16;;;;;;;8.40;1.45;;;;;;;;;;5087723;28;20298;-60
2024/01/24 10:43:46;;;;;;;8.82;1.70;;;;;;;;;;5087190;28;20206;-61
2024/01/24 10:46:15;;;;;;;6.35;1.55;;;;;;;;;;5082586;28;20198;-61
2024/01/24 10:48:42;;;;;;;12.32;1.40;;;;;;;;;;5068038;28;20215;-60
2024/01/24 10:51:10;;;;;;;2.17;1.40;;;;;;;;;;5070920;28;20211;-59
2024/01/24 10:53:37;;;;;;;5.55;1.42;;;;;;;;;;5087724;28;20209;-60
2024/01/24 10:56:05;;;;;;;9.02;1.73;;;;;;;;;;5078732;28;20276;-59
2024/01/24 10:58:33;;;;;;;6.25;1.55;;;;;;;;;;5073906;28;20226;-60
2024/01/24 11:01:00;;;;;;;6.18;1.23;;;;;;;;;;5068735;28;20730;-60
2024/01/24 11:03:29;;;;;;;8.15;1.40;;;;;;;;;;5079597;28;20202;-62
2024/01/24 11:05:56;;;;;;;4.97;1.10;;;;;;;;;;5087884;28;20194;-60
2024/01/24 11:08:26;;;;;;;7.07;1.65;;;;;;;;;;5087742;28;20198;-60
2024/01/24 11:10:54;;;;;;;8.75;1.30;;;;;;;;;;5079274;28;20639;-60
2024/01/24 11:13:21;;;;;;;9.63;1.80;;;;;;;;;;5070148;28;20203;-63
2024/01/24 11:15:48;;;;;;;8.40;1.27;;;;;;;;;;5075650;28;20229;-59
2024/01/24 11:18:26;;;;;;;6.47;1.33;;;;;;;;;;5085767;28;20881;-58
2024/01/24 11:20:55;;;;;;;7.18;1.55;;;;;;;;;;5069191;28;20213;-62
2024/01/24 11:23:42;;;;;;;6.20;1.35;;;;;;;;;;5076870;28;20653;-61
2024/01/24 11:26:10;;;;;;;7.90;1.52;;;;;;;;;;5068997;28;20340;-60
2024/01/24 11:28:37;;;;;;;5.90;1.65;;;;;;;;;;5079659;28;20204;-61
2024/01/24 11:31:06;;;;;;;7.35;1.75;;;;;;;;;;5083902;28;20210;-60
2024/01/24 11:33:34;;;;;;;4.85;1.25;;;;;;;;;;5086305;28;20731;-61
2024/01/24 11:36:03;;;;;;;4.75;1.30;;;;;;;;;;5085225;28;20315;-61
2024/01/24 11:38:34;;;;;;;8.95;1.98;;;;;;;;;;5087280;28;20207;-61
2024/01/24 11:41:02;;;;;;;8.52;1.85;;;;;;;;;;5086240;28;20214;-61
2024/01/24 11:43:29;;;;;;;6.32;1.58;;;;;;;;;;5071548;28;20206;-61
2024/01/24 11:45:57;;;;;;;3.50;1.08;;;;;;;;;;5068337;28;20712;-61
2024/01/24 11:48:24;;;;;;;4.07;1.50;;;;;;;;;;5068781;28;20214;-61
2024/01/24 11:50:55;;;;;;;6.05;1.60;;;;;;;;;;5066890;28;20696;-59
2024/01/24 11:53:23;;;;;;;7.50;1.63;;;;;;;;;;5076464;28;20206;-58
2024/01/24 11:55:54;;;;;;;9.63;1.38;;;;;;;;;;5071707;28;20222;-60
2024/01/24 11:58:25;;;;;;;6.65;1.70;;;;;;;;;;5074198;28;20230;-59
2024/01/24 12:00:53;;;;;;;6.47;1.40;;;;;;;;;;5073093;28;20198;-59
2024/01/24 12:03:20;;;;;;;7.35;1.25;;;;;;;;;;5090731;28;20206;-59
2024/01/24 12:05:47;;;;;;;8.85;2.10;;;;;;;;;;5088142;28;20228;-59
2024/01/24 12:08:14;;;;;;;7.00;1.73;;;;;;;;;;5091471;28;20210;-59
2024/01/24 12:10:43;;;;;;;10.30;2.17;;;;;;;;;;5091119;28;20232;-60
2024/01/24 12:13:10;;;;;;;5.97;1.35;;;;;;;;;;5072108;28;20223;-60
2024/01/24 12:15:38;;;;;;;3.50;1.50;;;;;;;;;;5075369;28;20202;-58
2024/01/24 12:18:06;;;;;;;5.80;1.42;;;;;;;;;;5071631;28;20211;-59
2024/01/24 12:20:33;;;;;;;7.53;1.95;;;;;;;;;;5078622;28;20226;-60
2024/01/24 12:23:00;;;;;;;8.88;1.60;;;;;;;;;;5089608;28;21009;-60
2024/01/24 12:25:27;;;;;;;6.13;1.33;;;;;;;;;;5088266;28;20202;-65
2024/01/24 12:27:56;;;;;;;8.77;1.80;;;;;;;;;;5091227;28;20285;-60
2024/01/24 12:30:23;;;;;;;11.32;1.80;;;;;;;;;;5084010;28;20732;-60
2024/01/24 12:32:55;;;;;;;11.45;1.85;;;;;;;;;;5073253;28;20234;-60
2024/01/24 12:35:22;;;;;;;7.22;1.38;;;;;;;;;;5085826;28;20492;-63
2024/01/24 12:37:49;;;;;;;7.53;1.42;;;;;;;;;;5080345;28;20234;-63
2024/01/24 12:40:18;;;;;;;8.90;2.28;;;;;;;;;;5078576;28;20663;-65
2024/01/24 12:42:45;;;;;;;7.43;1.50;;;;;;;;;;5070285;28;20241;-58
2024/01/24 12:45:14;;;;;;;5.05;1.48;;;;;;;;;;5085267;28;20708;-62
2024/01/24 12:47:41;;;;;;;11.82;1.98;;;;;;;;;;5076146;28;20202;-60
2024/01/24 12:50:10;;;;;;;13.52;2.28;;;;;;;;;;5087495;28;20214;-60
2024/01/24 12:52:37;;;;;;;10.27;1.77;;;;;;;;;;5082669;28;20206;-61
2024/01/24 12:55:05;;;;;;;5.72;1.55;;;;;;;;;;5087061;28;20207;-60
2024/01/24 12:57:33;;;;;;;11.95;2.70;;;;;;;;;;5079279;28;20258;-60
2024/01/24 13:00:00;;;;;;;6.55;1.92;;;;;;;;;;5089905;28;20210;-60
2024/01/24 13:02:29;;;;;;;14.18;2.60;;;;;;;;;;5089185;28;20210;-60
2024/01/24 13:04:56;;;;;;;11.90;2.42;;;;;;;;;;5090038;28;20212;-60
2024/01/24 13:07:23;;;;;;;9.65;1.75;;;;;;;;;;5085900;28;20210;-60
2024/01/24 13:09:51;;;;;;;9.18;2.20;;;;;;;;;;5079948;28;20242;-60
2024/01/24 13:12:18;;;;;;;12.02;1.95;;;;;;;;;;5079070;28;20794;-60
2024/01/24 13:14:45;;;;;;;9.50;2.30;;;;;;;;;;5086141;28;20206;-60
2024/01/24 13:17:12;;;;;;;11.18;1.90;;;;;;;;;;5081703;28;20301;-60
2024/01/24 13:19:41;;;;;;;9.30;2.20;;;;;;;;;;5086026;28;20211;-60
2024/01/24 13:22:08;;;;;;;8.20;1.92;;;;;;;;;;5080207;28;20211;-59
2024/01/24 13:24:35;;;;;;;8.50;1.77;;;;;;;;;;5085674;28;20573;-60
2024/01/24 13:27:01;;;;;;;7.90;1.77;;;;;;;;;;5076983;28;20217;-61
2024/01/24 13:29:28;;;;;;;5.20;2.13;;;;;;;;;;5082865;28;20210;-60
2024/01/24 13:31:55;;;;;;;18.05;2.55;;;;;;;;;;5087994;28;20233;-60
2024/01/24 13:34:22;;;;;;;11.65;2.15;;;;;;;;;;5082600;28;20767;-61
2024/01/24 13:36:50;;;;;;;8.57;1.70;;;;;;;;;;5088750;28;20283;-60
2024/01/24 13:39:17;;;;;;;6.13;2.30;;;;;;;;;;5087726;28;20202;-60
2024/01/24 13:41:44;;;;;;;11.90;2.47;;;;;;;;;;5083234;28;20765;-60
2024/01/24 13:44:12;;;;;;;8.07;2.28;;;;;;;;;;5084677;28;20206;-60
2024/01/24 13:46:40;;;;;;;11.70;2.47;;;;;;;;;;5082311;28;20557;-61
2024/01/24 13:49:08;;;;;;;10.60;2.13;;;;;;;;;;5076108;28;20207;-60
2024/01/24 13:51:35;;;;;;;5.90;1.92;;;;;;;;;;5072601;28;20211;-60
2024/01/24 13:54:04;;;;;;;9.70;1.92;;;;;;;;;;5083280;28;20202;-60
2024/01/24 13:56:31;;;;;;;10.10;2.40;;;;;;;;;;5081442;28;20226;-61
2024/01/24 13:58:58;;;;;;;5.93;1.77;;;;;;;;;;5081639;28;20329;-61
2024/01/24 14:01:25;;;;;;;8.35;1.90;;;;;;;;;;5085645;28;20578;-60
2024/01/24 14:03:52;;;;;;;10.25;2.58;;;;;;;;;;5083065;28;20214;-63
2024/01/24 14:06:19;;;;;;;7.93;2.03;;;;;;;;;;5083675;28;20213;-60
2024/01/24 14:08:47;;;;;;;10.00;1.95;;;;;;;;;;5088602;28;20283;-61
2024/01/24 14:11:15;;;;;;;10.27;2.45;;;;;;;;;;5077858;28;20195;-61
2024/01/24 14:13:42;;;;;;;16.90;2.08;;;;;;;;;;5086724;28;20221;-60
2024/01/24 14:16:09;;;;;;;11.57;2.10;;;;;;;;;;5086908;28;20838;-61
2024/01/24 14:18:36;;;;;;;13.90;2.15;;;;;;;;;;5087907;28;20202;-58
2024/01/24 14:21:03;;;;;;;8.68;1.80;;;;;;;;;;5073313;28;20195;-60
2024/01/24 14:23:31;;;;;;;11.38;2.10;;;;;;;;;;5083807;28;20198;-63
2024/01/24 14:25:58;;;;;;;8.88;1.98;;;;;;;;;;5085397;28;20201;-61
2024/01/24 14:28:26;;;;;;;11.95;2.33;;;;;;;;;;5075564;28;20655;-62
2024/01/24 14:30:53;;;;;;;11.15;2.25;;;;;;;;;;5085689;28;20210;-61
2024/01/24 14:33:20;;;;;;;14.50;2.20;;;;;;;;;;5073576;28;20199;-61
2024/01/24 14:35:47;;;;;;;7.18;2.25;;;;;;;;;;5073165;28;20211;-60
2024/01/24 14:38:15;;;;;;;7.82;2.25;;;;;;;;;;5082868;28;20703;-61
2024/01/24 14:40:43;;;;;;;6.30;1.98;;;;;;;;;;5087213;28;20210;-61
2024/01/24 14:43:10;;;;;;;13.65;2.30;;;;;;;;;;5074642;28;20202;-61
2024/01/24 14:45:38;;;;;;;9.15;2.13;;;;;;;;;;5085346;28;20210;-61